sensor_id;sensor_type;location;lat;lon;timestamp;temperature;humidity
7014;DHT22;3547;50.774;12.918;2022-08-21T13:07:57;24.70;99.90
7014;DHT22;3547;50.774;12.918;2022-08-21T13:10:43;24.50;99.90
7014;DHT22;3547;50.774;12.918;2022-08-21T13:13:42;24.30;99.90
7014;DHT22;3547;50.774;12.918;2022-08-21T13:39:04;26.60;77.10
7014;DHT22;3547;50.774;12.918;2022-08-21T14:11:32;25.10;73.30
7014;DHT22;3547;50.774;12.918;2022-08-21T15:06:08;28.60;1.00
7014;DHT22;3547;50.774;12.918;2022-08-21T15:19:46;28.50;1.00
7014;DHT22;3547;50.774;12.918;2022-08-21T15:29:06;28.50;1.00
7014;DHT22;3547;50.774;12.918;2022-08-21T15:51:26;31.50;1.00
7014;DHT22;3547;50.774;12.918;2022-08-21T15:57:21;30.20;1.00
7014;DHT22;3547;50.774;12.918;2022-08-21T16:09:44;33.90;1.00
7014;DHT22;3547;50.774;12.918;2022-08-21T16:12:15;34.40;1.00
7014;DHT22;3547;50.774;12.918;2022-08-21T16:14:43;33.80;1.00
7014;DHT22;3547;50.774;12.918;2022-08-21T16:20:48;33.20;1.00
7014;DHT22;3547;50.774;12.918;2022-08-21T16:23:29;33.30;1.00
7014;DHT22;3547;50.774;12.918;2022-08-21T16:26:08;33.50;1.00
7014;DHT22;3547;50.774;12.918;2022-08-21T16:28:43;34.20;1.00
7014;DHT22;3547;50.774;12.918;2022-08-21T16:31:31;34.10;1.00
7014;DHT22;3547;50.774;12.918;2022-08-21T16:37:28;34.50;1.00
7014;DHT22;3547;50.774;12.918;2022-08-21T16:40:04;33.70;1.00
7014;DHT22;3547;50.774;12.918;2022-08-21T16:53:23;32.70;1.00
7014;DHT22;3547;50.774;12.918;2022-08-21T16:55:58;32.80;1.00
7014;DHT22;3547;50.774;12.918;2022-08-21T17:03:47;30.10;1.00
7014;DHT22;3547;50.774;12.918;2022-08-21T17:06:19;29.20;1.00
7014;DHT22;3547;50.774;12.918;2022-08-21T17:08:46;28.60;1.00
7014;DHT22;3547;50.774;12.918;2022-08-21T17:14:35;27.40;1.00
7014;DHT22;3547;50.774;12.918;2022-08-21T17:20:24;26.40;1.00
7014;DHT22;3547;50.774;12.918;2022-08-21T17:22:51;25.90;1.00
7014;DHT22;3547;50.774;12.918;2022-08-21T17:25:17;25.60;1.00
7014;DHT22;3547;50.774;12.918;2022-08-21T17:27:45;25.30;1.00
7014;DHT22;3547;50.774;12.918;2022-08-21T17:30:13;25.00;1.00
7014;DHT22;3547;50.774;12.918;2022-08-21T17:32:41;24.70;1.00
7014;DHT22;3547;50.774;12.918;2022-08-21T17:35:12;24.40;1.00
7014;DHT22;3547;50.774;12.918;2022-08-21T17:37:39;24.10;1.00
7014;DHT22;3547;50.774;12.918;2022-08-21T17:40:07;23.90;1.00
7014;DHT22;3547;50.774;12.918;2022-08-21T17:42:35;23.60;1.00
7014;DHT22;3547;50.774;12.918;2022-08-21T17:45:03;23.50;1.00
7014;DHT22;3547;50.774;12.918;2022-08-21T17:47:30;23.30;1.00
7014;DHT22;3547;50.774;12.918;2022-08-21T17:49:56;23.10;1.00
7014;DHT22;3547;50.774;12.918;2022-08-21T17:52:31;22.90;1.00
7014;DHT22;3547;50.774;12.918;2022-08-21T17:55:24;22.70;1.00
7014;DHT22;3547;50.774;12.918;2022-08-21T18:04:10;22.20;1.00
7014;DHT22;3547;50.774;12.918;2022-08-21T18:06:44;22.10;1.00
7014;DHT22;3547;50.774;12.918;2022-08-21T18:09:16;21.80;1.00
7014;DHT22;3547;50.774;12.918;2022-08-21T18:11:46;21.70;1.00
7014;DHT22;3547;50.774;12.918;2022-08-21T18:14:28;21.40;1.00
7014;DHT22;3547;50.774;12.918;2022-08-21T18:16:58;21.20;1.00
7014;DHT22;3547;50.774;12.918;2022-08-21T18:19:31;21.00;1.00
7014;DHT22;3547;50.774;12.918;2022-08-21T18:22:00;20.80;1.00
7014;DHT22;3547;50.774;12.918;2022-08-21T18:24:27;20.70;1.00
7014;DHT22;3547;50.774;12.918;2022-08-21T18:26:53;20.50;1.00
7014;DHT22;3547;50.774;12.918;2022-08-21T18:29:21;20.40;1.00
7014;DHT22;3547;50.774;12.918;2022-08-21T18:31:48;20.30;1.00
7014;DHT22;3547;50.774;12.918;2022-08-21T18:34:31;20.10;1.00
7014;DHT22;3547;50.774;12.918;2022-08-21T18:37:00;20.00;1.00
7014;DHT22;3547;50.774;12.918;2022-08-21T18:39:30;19.90;1.00
7014;DHT22;3547;50.774;12.918;2022-08-21T18:42:07;19.70;1.00
7014;DHT22;3547;50.774;12.918;2022-08-21T18:44:33;19.70;1.00
7014;DHT22;3547;50.774;12.918;2022-08-21T18:50:28;19.70;1.00
7014;DHT22;3547;50.774;12.918;2022-08-21T18:52:55;19.40;1.00
7014;DHT22;3547;50.774;12.918;2022-08-21T18:55:22;19.30;1.00
7014;DHT22;3547;50.774;12.918;2022-08-21T18:57:58;19.10;1.00
7014;DHT22;3547;50.774;12.918;2022-08-21T19:00:31;19.00;1.00
7014;DHT22;3547;50.774;12.918;2022-08-21T19:02:59;19.00;1.00
7014;DHT22;3547;50.774;12.918;2022-08-21T19:05:29;19.00;1.00
7014;DHT22;3547;50.774;12.918;2022-08-21T19:07:56;19.00;1.00
7014;DHT22;3547;50.774;12.918;2022-08-21T19:10:28;18.90;1.00
7014;DHT22;3547;50.774;12.918;2022-08-21T19:13:02;18.90;1.00
7014;DHT22;3547;50.774;12.918;2022-08-21T19:15:33;18.80;1.00
7014;DHT22;3547;50.774;12.918;2022-08-21T19:21:03;18.60;1.00
7014;DHT22;3547;50.774;12.918;2022-08-21T19:23:30;18.60;1.00
7014;DHT22;3547;50.774;12.918;2022-08-21T19:25:59;18.40;1.00
7014;DHT22;3547;50.774;12.918;2022-08-21T19:28:42;18.40;1.00
7014;DHT22;3547;50.774;12.918;2022-08-21T19:31:13;18.30;1.00
7014;DHT22;3547;50.774;12.918;2022-08-21T19:33:47;18.10;1.00
7014;DHT22;3547;50.774;12.918;2022-08-21T19:36:15;18.10;1.00
7014;DHT22;3547;50.774;12.918;2022-08-21T19:38:44;18.10;1.00
7014;DHT22;3547;50.774;12.918;2022-08-21T19:41:14;18.00;1.00
7014;DHT22;3547;50.774;12.918;2022-08-21T19:43:48;17.90;1.00
7014;DHT22;3547;50.774;12.918;2022-08-21T19:46:54;17.90;1.00
7014;DHT22;3547;50.774;12.918;2022-08-21T19:53:09;17.60;1.00
7014;DHT22;3547;50.774;12.918;2022-08-21T19:55:46;17.60;1.00
7014;DHT22;3547;50.774;12.918;2022-08-21T19:58:40;17.60;1.00
7014;DHT22;3547;50.774;12.918;2022-08-21T20:01:31;17.50;1.00
7014;DHT22;3547;50.774;12.918;2022-08-21T20:04:01;17.40;1.00
7014;DHT22;3547;50.774;12.918;2022-08-21T20:06:53;17.40;1.00
7014;DHT22;3547;50.774;12.918;2022-08-21T20:09:45;17.40;1.00
7014;DHT22;3547;50.774;12.918;2022-08-21T20:15:37;17.20;1.20
7014;DHT22;3547;50.774;12.918;2022-08-21T20:18:18;17.00;1.20
7014;DHT22;3547;50.774;12.918;2022-08-21T20:23:42;16.90;5.80
7014;DHT22;3547;50.774;12.918;2022-08-21T20:26:20;16.90;7.50
7014;DHT22;3547;50.774;12.918;2022-08-21T20:28:50;16.90;6.00
7014;DHT22;3547;50.774;12.918;2022-08-21T20:37:04;16.80;11.30
7014;DHT22;3547;50.774;12.918;2022-08-21T20:39:33;16.70;10.50
7014;DHT22;3547;50.774;12.918;2022-08-21T20:42:06;16.70;11.00
7014;DHT22;3547;50.774;12.918;2022-08-21T20:44:56;16.70;12.70
7014;DHT22;3547;50.774;12.918;2022-08-21T20:47:29;16.70;10.30
7014;DHT22;3547;50.774;12.918;2022-08-21T20:50:08;16.60;13.00
7014;DHT22;3547;50.774;12.918;2022-08-21T20:52:44;16.60;13.10
7014;DHT22;3547;50.774;12.918;2022-08-21T20:55:16;16.50;17.70
7014;DHT22;3547;50.774;12.918;2022-08-21T20:58:23;16.50;15.80
7014;DHT22;3547;50.774;12.918;2022-08-21T21:00:48;16.40;16.60
7014;DHT22;3547;50.774;12.918;2022-08-21T21:03:28;16.40;16.20
7014;DHT22;3547;50.774;12.918;2022-08-21T21:06:14;16.40;15.10
7014;DHT22;3547;50.774;12.918;2022-08-21T21:11:28;16.30;16.50
7014;DHT22;3547;50.774;12.918;2022-08-21T21:14:05;16.20;20.00
7014;DHT22;3547;50.774;12.918;2022-08-21T21:16:54;16.20;18.40
7014;DHT22;3547;50.774;12.918;2022-08-21T21:22:08;16.20;19.10
7014;DHT22;3547;50.774;12.918;2022-08-21T21:27:24;16.00;23.00
7014;DHT22;3547;50.774;12.918;2022-08-21T21:30:09;16.00;23.70
7014;DHT22;3547;50.774;12.918;2022-08-21T21:32:38;16.00;22.50
7014;DHT22;3547;50.774;12.918;2022-08-21T21:35:12;16.00;22.10
7014;DHT22;3547;50.774;12.918;2022-08-21T21:50:54;15.80;23.90
7014;DHT22;3547;50.774;12.918;2022-08-21T22:00:25;15.40;99.90
7014;DHT22;3547;50.774;12.918;2022-08-21T22:06:35;15.40;68.50
7014;DHT22;3547;50.774;12.918;2022-08-21T22:09:35;15.40;64.70
7014;DHT22;3547;50.774;12.918;2022-08-21T22:12:37;15.30;99.90
7014;DHT22;3547;50.774;12.918;2022-08-21T22:15:19;15.20;96.10
7014;DHT22;3547;50.774;12.918;2022-08-21T22:18:22;15.10;92.10
7014;DHT22;3547;50.774;12.918;2022-08-21T22:21:18;15.00;99.90
7014;DHT22;3547;50.774;12.918;2022-08-21T22:24:12;14.80;99.90
7014;DHT22;3547;50.774;12.918;2022-08-21T22:26:55;14.80;99.90
7014;DHT22;3547;50.774;12.918;2022-08-21T22:29:43;14.70;99.90
7014;DHT22;3547;50.774;12.918;2022-08-21T22:35:33;14.60;99.90
7014;DHT22;3547;50.774;12.918;2022-08-21T22:38:32;14.60;99.90
7014;DHT22;3547;50.774;12.918;2022-08-21T22:41:22;14.50;1.00
7014;DHT22;3547;50.774;12.918;2022-08-21T22:43:53;14.50;99.90
7014;DHT22;3547;50.774;12.918;2022-08-21T22:46:31;14.40;99.90
7014;DHT22;3547;50.774;12.918;2022-08-21T22:49:06;14.40;99.90
7014;DHT22;3547;50.774;12.918;2022-08-21T22:51:45;14.30;1.00
7014;DHT22;3547;50.774;12.918;2022-08-21T22:54:29;14.20;1.00
7014;DHT22;3547;50.774;12.918;2022-08-21T22:57:05;14.20;1.00
7014;DHT22;3547;50.774;12.918;2022-08-21T22:59:56;14.20;1.00
7014;DHT22;3547;50.774;12.918;2022-08-21T23:11:15;13.90;1.00
7014;DHT22;3547;50.774;12.918;2022-08-21T23:13:44;13.70;1.00
7014;DHT22;3547;50.774;12.918;2022-08-21T23:25:02;13.50;38.30
7014;DHT22;3547;50.774;12.918;2022-08-21T23:30:10;13.40;99.90
7014;DHT22;3547;50.774;12.918;2022-08-21T23:33:11;13.30;99.90
7014;DHT22;3547;50.774;12.918;2022-08-21T23:39:36;13.30;1.00
7014;DHT22;3547;50.774;12.918;2022-08-21T23:45:50;13.10;97.90
7014;DHT22;3547;50.774;12.918;2022-08-21T23:48:46;13.10;99.90
7014;DHT22;3547;50.774;12.918;2022-08-21T23:51:40;13.10;99.90
7014;DHT22;3547;50.774;12.918;2022-08-21T23:54:23;13.30;1.00
